The Eastern Iowa Airport
KCID : now visible

Airfield :











YOU CAN JOIN US ON...

 
LOGIN :

Register | Disclaimer

   EN    FR    IT 

 









Legend :    VFR   Marginal VFR   IFR   Intensive IFR   Very Intensive IFR
Visi :
Ceiling :
>= 8 km
>= 3000ft
5 to 8 km
1000 to 3000 ft
1500m to 5 km
500 to 1000 ft
800 to 1500m
200 to 500 ft
< 800m
< 200 ft
Symbols :   Thunderstorms  Fog  Heavy snow  Heavy precipitations  Wind > 20 kt






- Airport Elevation : 869 ft
- IATA code : CID


KCID - The Eastern Iowa

CURRENT METAR :
  • 230152Z 35016KT 8SM OVC003 07/07 A2980 RMK AO2 LTG DSNT NW RAB28E37 SLP096 P0000 T00720072

EXPIRED METARs :
  • 230115Z 33019G23KT 4SM BR OVC002 09/09 A2980 RMK AO2 T00890089
  • 230102Z 33014KT 2SM BR BKN002 OVC055 10/10 A2979 RMK AO2 T01000100
  • 230052Z 33021G27KT 4SM BR SCT002 BKN055 OVC070 11/11 A2980 RMK AO2 PK WND 31028/0040 PRESRR SLP093 T01110111
  • 230036Z 28008KT 2SM R09/4500VP6000FT BR FEW002 BKN070 OVC095 14/14 A2977 RMK AO2 PRESRR T01440139
  • 230000Z 12006KT 3SM BR BKN095 13/13 A2974 RMK AO2 T01330133
  • 222352Z 12005KT 2 1/2SM BR BKN095 13/13 A2974 RMK AO2 SLP073 T01330133 10139 20111 58020

TAF KCID
Valid from the 23 at 00:00 until the 24 at 00:00 UTC


230015Z 2300/2324 12006KT 3SM BR SCT002 BKN090 WS016/20040KT
FM230200 36012G18KT 3SM -SHRA BR OVC005
TEMPO 2303/2305 VRB20G30KT 1SM TSRA BR OVC010CB
FM230900 33017G25KT 4SM -SHRA BR OVC008
FM231600 32021G31KT P6SM BKN020
KZAU FIR / North America



MET'MAP, your aeronautical weather chart ! - Copyright ORBIFLY December 2007 - Disclaimer

ORBIFLY MET'MAP TEAM :

Programming & Development : Alexandra Zaïnal
Concept & original design : Baudouin d'Aumeries
Assistance for programming : Marc-Olivier Méhu
Technical & hardware support : Manuel Goepfert

Contact : metmap@orbifly.com




SOURCES & CREDITS :

   NOAA       Earth
Advisory